Time;durP1;ratioP1;P1;durP2;ratioP2;P2;SDS_P1;SDS_P2;PMS_P1;PMS_P2;Temp;Humidity;BMP_temperature;BMP_pressure;BME280_temperature;BME280_humidity;BME280_pressure;Samples;Min_cycle;Max_cycle;Signal;HPM_P1;HPM_P2
2022/05/27 00:00:20;;;;;;;1.40;1.05;;;21.10;57.60;;;;;;4975771;28;20027;-76
2022/05/27 00:02:47;;;;;;;1.45;1.10;;;21.10;57.70;;;;;;4995617;28;20033;-77
2022/05/27 00:05:13;;;;;;;2.58;1.15;;;21.10;57.70;;;;;;4958511;28;20447;-76
2022/05/27 00:07:39;;;;;;;1.20;1.10;;;21.10;57.70;;;;;;4955521;28;20061;-76
2022/05/27 00:10:07;;;;;;;3.03;1.40;;;21.00;57.60;;;;;;4963008;28;20034;-75
2022/05/27 00:12:33;;;;;;;1.50;0.98;;;21.10;57.80;;;;;;4973627;28;20023;-78
2022/05/27 00:14:58;;;;;;;2.42;1.08;;;21.10;57.70;;;;;;4973825;28;20129;-76
2022/05/27 00:17:24;;;;;;;1.60;1.10;;;21.00;57.70;;;;;;4976522;28;20073;-77
2022/05/27 00:19:50;;;;;;;1.20;1.10;;;21.00;57.70;;;;;;4955403;28;20408;-76
2022/05/27 00:22:16;;;;;;;2.22;1.20;;;21.00;57.70;;;;;;4965436;28;20379;-76
2022/05/27 00:24:42;;;;;;;1.60;1.15;;;21.00;57.80;;;;;;4959219;28;21760;-76
2022/05/27 00:27:08;;;;;;;2.17;1.30;;;21.00;57.80;;;;;;4967030;28;20483;-76
2022/05/27 00:29:35;;;;;;;1.40;1.00;;;20.90;57.70;;;;;;4955220;28;20028;-76
2022/05/27 00:32:02;;;;;;;1.80;1.15;;;20.90;57.80;;;;;;4974125;28;20023;-76
2022/05/27 00:34:28;;;;;;;1.15;1.05;;;20.90;57.80;;;;;;4973182;28;20471;-77
2022/05/27 00:36:54;;;;;;;2.45;1.10;;;20.90;57.80;;;;;;4939488;29;20075;-76
2022/05/27 00:39:19;;;;;;;2.85;1.10;;;20.90;57.80;;;;;;4970426;28;20027;-75
2022/05/27 00:41:45;;;;;;;1.90;1.27;;;20.80;57.80;;;;;;4964149;28;20070;-75
2022/05/27 00:44:11;;;;;;;2.35;1.30;;;20.80;57.80;;;;;;4968897;28;20031;-75
2022/05/27 00:46:41;;;;;;;1.60;1.30;;;20.80;57.80;;;;;;4974916;28;20038;-75
2022/05/27 00:49:17;;;;;;;1.38;1.20;;;20.80;57.90;;;;;;4971210;28;20061;-77
2022/05/27 00:51:48;;;;;;;1.75;1.20;;;20.80;57.90;;;;;;4974746;28;20077;-77
2022/05/27 00:54:18;;;;;;;2.67;1.20;;;20.70;57.90;;;;;;4975948;28;20106;-77
2022/05/27 00:56:50;;;;;;;2.60;1.33;;;20.70;57.90;;;;;;4954094;28;20083;-77
2022/05/27 00:59:24;;;;;;;1.38;1.10;;;20.70;57.90;;;;;;4967184;28;20078;-77
2022/05/27 01:01:52;;;;;;;2.20;1.30;;;20.70;58.00;;;;;;4974977;28;20027;-77
2022/05/27 01:04:18;;;;;;;1.55;1.17;;;20.70;58.00;;;;;;4962469;28;20026;-79
2022/05/27 01:06:45;;;;;;;1.48;1.20;;;20.70;58.10;;;;;;4966073;28;20519;-78
2022/05/27 01:09:12;;;;;;;2.13;1.05;;;20.70;58.10;;;;;;4973991;28;20455;-78
2022/05/27 01:12:00;;;;;;;2.53;1.17;;;20.70;58.20;;;;;;4973629;28;20026;-79
2022/05/27 01:14:31;;;;;;;3.08;1.25;;;20.60;58.30;;;;;;4975848;28;20031;-79
2022/05/27 01:17:20;;;;;;;2.20;1.30;;;20.60;58.30;;;;;;4979642;28;20051;-78
2022/05/27 01:20:20;;;;;;;1.60;1.10;;;20.60;58.40;;;;;;4972749;28;20042;-78
2022/05/27 01:23:16;;;;;;;1.23;0.93;;;20.50;58.40;;;;;;4970064;28;20034;-78
2022/05/27 01:26:07;;;;;;;1.23;1.00;;;20.50;58.50;;;;;;4974632;28;20040;-78
2022/05/27 01:28:49;;;;;;;2.00;1.13;;;20.40;58.50;;;;;;4965475;28;20518;-78
2022/05/27 01:31:23;;;;;;;0.80;0.80;;;20.40;58.60;;;;;;4990742;28;20023;-78
2022/05/27 01:34:27;;;;;;;3.08;1.13;;;20.40;58.60;;;;;;4969190;28;20030;-78
2022/05/27 01:37:19;;;;;;;1.30;1.08;;;20.40;58.70;;;;;;4959951;28;20054;-78
2022/05/27 01:40:11;;;;;;;2.05;1.10;;;20.30;58.70;;;;;;4972239;28;20030;-78
2022/05/27 01:42:37;;;;;;;1.42;0.98;;;20.30;58.80;;;;;;4965084;28;20093;-78
2022/05/27 01:45:11;;;;;;;0.93;0.85;;;20.30;58.80;;;;;;4968101;28;20030;-78
2022/05/27 01:47:43;;;;;;;1.33;0.93;;;20.30;58.90;;;;;;4965446;28;20026;-77
2022/05/27 01:50:18;;;;;;;1.00;0.90;;;20.30;58.90;;;;;;4971497;28;20038;-78
2022/05/27 01:53:07;;;;;;;1.45;0.88;;;20.30;59.00;;;;;;4972324;28;20467;-78
2022/05/27 01:55:42;;;;;;;1.20;0.98;;;20.20;59.60;;;;;;4961222;28;20020;-78
2022/05/27 01:58:19;;;;;;;1.42;0.90;;;20.20;59.00;;;;;;4969828;28;20467;-77
2022/05/27 02:00:47;;;;;;;1.27;1.00;;;20.20;59.10;;;;;;4982383;28;20027;-77
2022/05/27 02:03:34;;;;;;;0.93;0.82;;;20.20;59.10;;;;;;4969047;28;20019;-77
2022/05/27 02:06:55;;;;;;;1.33;0.80;;;20.10;59.10;;;;;;4958319;28;20031;-77
2022/05/27 02:09:41;;;;;;;1.00;0.90;;;20.10;59.30;;;;;;4933670;28;20054;-77
2022/05/27 02:12:23;;;;;;;1.48;0.90;;;20.10;59.20;;;;;;4969272;28;20042;-77
2022/05/27 02:14:54;;;;;;;1.75;0.90;;;20.00;59.30;;;;;;4957014;28;20026;-77
2022/05/27 02:17:32;;;;;;;1.45;1.05;;;20.00;59.30;;;;;;4956365;28;20102;-77
2022/05/27 02:20:13;;;;;;;1.13;1.00;;;20.00;59.40;;;;;;4964008;28;20027;-77
2022/05/27 02:22:55;;;;;;;1.17;1.00;;;20.00;59.40;;;;;;4972630;28;20022;-77
2022/05/27 02:25:32;;;;;;;2.22;1.08;;;19.90;59.50;;;;;;4969631;28;20035;-77
2022/05/27 02:28:13;;;;;;;1.35;1.00;;;19.90;59.50;;;;;;4973161;28;20027;-77
2022/05/27 02:30:43;;;;;;;1.23;1.05;;;19.90;59.50;;;;;;4972081;28;20055;-77
2022/05/27 02:36:05;;;;;;;2.30;1.20;;;19.80;59.60;;;;;;4970851;28;20407;-77
2022/05/27 02:38:32;;;;;;;1.70;1.00;;;19.80;59.60;;;;;;4971381;28;20023;-77
2022/05/27 02:41:04;;;;;;;1.58;1.10;;;19.80;59.70;;;;;;4972885;28;20030;-77
2022/05/27 02:43:48;;;;;;;1.58;1.05;;;19.70;59.80;;;;;;4982325;28;20030;-77
2022/05/27 02:46:26;;;;;;;1.75;1.20;;;19.80;59.80;;;;;;4962704;28;20027;-77
2022/05/27 02:49:08;;;;;;;2.25;1.23;;;19.70;59.80;;;;;;4971070;28;20022;-77
2022/05/27 02:51:59;;;;;;;1.48;1.10;;;19.70;59.90;;;;;;4975879;28;20026;-77
2022/05/27 02:54:31;;;;;;;1.48;1.02;;;19.60;59.90;;;;;;4959996;28;20022;-77
2022/05/27 02:57:12;;;;;;;1.77;1.25;;;19.60;59.90;;;;;;4957024;28;20034;-77
2022/05/27 02:59:39;;;;;;;1.40;1.17;;;19.60;60.00;;;;;;4977545;28;20436;-77
2022/05/27 03:02:12;;;;;;;1.65;1.15;;;19.60;60.00;;;;;;4955150;28;20023;-77
2022/05/27 03:04:52;;;;;;;1.52;1.30;;;19.60;60.10;;;;;;4976387;28;20467;-77
2022/05/27 03:07:23;;;;;;;1.77;1.35;;;19.60;60.20;;;;;;4976362;28;20031;-77
2022/05/27 03:10:19;;;;;;;1.75;1.35;;;19.50;60.10;;;;;;4974857;28;20026;-76
2022/05/27 03:13:07;;;;;;;1.75;1.10;;;19.50;60.20;;;;;;4976564;28;20030;-76
2022/05/27 03:15:51;;;;;;;1.23;1.10;;;19.50;60.20;;;;;;4975404;28;20084;-76
2022/05/27 03:18:58;;;;;;;1.38;1.27;;;19.50;60.30;;;;;;4936529;28;1108390;-76
2022/05/27 03:21:33;;;;;;;2.45;1.33;;;19.40;60.40;;;;;;4931255;28;20085;-77
2022/05/27 03:24:18;;;;;;;1.38;1.20;;;19.40;60.30;;;;;;4974141;28;20174;-77
2022/05/27 03:27:12;;;;;;;1.95;1.27;;;19.30;60.30;;;;;;4976221;28;20023;-76
2022/05/27 03:29:44;;;;;;;1.42;1.20;;;19.30;60.50;;;;;;4975091;28;20027;-77
2022/05/27 03:32:36;;;;;;;1.90;1.35;;;19.30;60.40;;;;;;4977454;28;20096;-76
2022/05/27 03:35:40;;;;;;;1.63;1.10;;;19.30;60.60;;;;;;4976377;28;20026;-76
2022/05/27 03:38:19;;;;;;;1.23;1.13;;;19.20;60.60;;;;;;4976173;28;20039;-77
2022/05/27 03:41:03;;;;;;;1.58;1.27;;;19.20;60.60;;;;;;4976668;28;20074;-77
2022/05/27 03:43:31;;;;;;;1.67;1.20;;;19.20;60.70;;;;;;4974723;28;20033;-77
2022/05/27 03:45:59;;;;;;;1.30;1.20;;;19.20;60.60;;;;;;4974912;28;20035;-76
2022/05/27 03:48:28;;;;;;;2.10;1.40;;;19.10;60.70;;;;;;4975162;28;20391;-76
2022/05/27 03:50:59;;;;;;;1.48;1.33;;;19.10;60.70;;;;;;4975115;28;20035;-77
2022/05/27 03:54:03;;;;;;;2.72;1.50;;;19.10;60.80;;;;;;4981036;28;20490;-77
2022/05/27 03:56:11;;;;;;;1.30;1.20;;;19.10;60.80;;;;;;4976529;28;20102;-77
2022/05/27 03:58:37;;;;;;;1.67;1.30;;;19.10;60.80;;;;;;4971972;28;20030;-77
2022/05/27 04:01:03;;;;;;;1.73;1.38;;;19.10;60.90;;;;;;4975838;28;20541;-78
2022/05/27 04:03:28;;;;;;;1.83;1.25;;;19.10;60.90;;;;;;4988945;28;20046;-77
2022/05/27 04:05:54;;;;;;;1.80;1.40;;;19.00;60.90;;;;;;4974431;28;20077;-76
2022/05/27 04:08:20;;;;;;;2.22;1.23;;;19.00;60.90;;;;;;4973463;28;20444;-76
2022/05/27 04:10:45;;;;;;;1.90;1.30;;;19.00;60.90;;;;;;4975992;28;20034;-76
2022/05/27 04:13:11;;;;;;;2.08;1.38;;;19.00;61.00;;;;;;4943578;28;20348;-76
2022/05/27 04:15:37;;;;;;;1.85;1.20;;;18.90;60.90;;;;;;4974834;28;20121;-76
2022/05/27 04:18:03;;;;;;;1.85;1.40;;;19.00;61.10;;;;;;4976064;28;20085;-77
2022/05/27 04:20:28;;;;;;;1.90;1.30;;;18.90;61.10;;;;;;4973736;28;20058;-77
2022/05/27 04:22:54;;;;;;;1.90;1.27;;;18.90;61.30;;;;;;4968296;28;20023;-77
2022/05/27 04:25:21;;;;;;;1.70;1.17;;;18.90;61.10;;;;;;4973563;28;20034;-76
2022/05/27 04:27:47;;;;;;;2.80;1.40;;;18.90;61.10;;;;;;4954341;28;20027;-76
2022/05/27 04:30:13;;;;;;;2.15;1.50;;;18.90;61.20;;;;;;4979945;28;20037;-76
2022/05/27 04:32:39;;;;;;;2.60;1.40;;;18.80;61.20;;;;;;4956904;28;20022;-76
2022/05/27 04:35:07;;;;;;;2.10;1.40;;;18.80;61.20;;;;;;4956758;28;20027;-77
2022/05/27 04:37:33;;;;;;;2.28;1.50;;;18.80;61.30;;;;;;4974616;28;20034;-76
2022/05/27 04:39:58;;;;;;;2.78;1.35;;;18.80;61.30;;;;;;4974664;28;20081;-77
2022/05/27 04:42:25;;;;;;;3.00;1.58;;;18.80;61.30;;;;;;4973124;28;20454;-76
2022/05/27 04:44:52;;;;;;;2.25;1.30;;;18.80;61.40;;;;;;4975465;28;20031;-77
2022/05/27 04:47:17;;;;;;;1.67;1.13;;;18.80;61.40;;;;;;4957633;28;20031;-78
2022/05/27 04:49:53;;;;;;;1.55;1.20;;;18.70;61.40;;;;;;4976751;28;20030;-76
2022/05/27 04:52:24;;;;;;;1.50;1.17;;;18.70;61.40;;;;;;4970003;28;20468;-76
2022/05/27 04:54:51;;;;;;;2.42;1.25;;;18.70;61.50;;;;;;4976558;28;20031;-77
2022/05/27 04:57:28;;;;;;;2.17;1.27;;;18.70;61.50;;;;;;4953253;28;20055;-77
2022/05/27 04:59:53;;;;;;;2.03;1.38;;;18.70;61.60;;;;;;4970352;28;20042;-76
2022/05/27 05:02:21;;;;;;;1.38;1.10;;;18.60;61.50;;;;;;4973966;28;20030;-77
2022/05/27 05:04:48;;;;;;;2.00;1.38;;;18.70;61.60;;;;;;4973001;28;20039;-76
2022/05/27 05:07:14;;;;;;;3.20;1.40;;;18.60;61.50;;;;;;4978193;28;20027;-76
2022/05/27 05:09:41;;;;;;;1.67;1.20;;;18.60;61.60;;;;;;4973109;28;20042;-76
2022/05/27 05:12:09;;;;;;;1.98;1.17;;;18.60;61.60;;;;;;4973655;28;20027;-76
2022/05/27 05:14:35;;;;;;;2.15;1.40;;;18.60;61.70;;;;;;4956242;28;20035;-76
2022/05/27 05:17:01;;;;;;;2.22;1.35;;;18.60;61.70;;;;;;4954521;28;20023;-76
2022/05/27 05:19:27;;;;;;;1.45;1.30;;;18.60;61.70;;;;;;4970355;28;20415;-76
2022/05/27 05:21:53;;;;;;;3.65;1.48;;;18.60;61.70;;;;;;4974778;28;20066;-77
2022/05/27 05:24:19;;;;;;;2.20;1.40;;;18.60;61.80;;;;;;4956994;28;20033;-76
2022/05/27 05:26:45;;;;;;;2.60;1.40;;;18.60;61.80;;;;;;4969523;28;20027;-76
2022/05/27 05:29:11;;;;;;;2.05;1.40;;;18.60;61.80;;;;;;4972873;28;20101;-77
2022/05/27 05:31:37;;;;;;;1.67;1.23;;;18.50;61.80;;;;;;4982681;28;20093;-77
2022/05/27 05:34:03;;;;;;;2.35;1.45;;;18.50;61.80;;;;;;4959011;28;20050;-76
2022/05/27 05:36:30;;;;;;;1.80;1.25;;;18.50;61.80;;;;;;4957905;28;20097;-77
2022/05/27 05:38:56;;;;;;;2.22;1.38;;;18.50;61.90;;;;;;4974095;28;20042;-76
2022/05/27 05:41:29;;;;;;;2.90;1.30;;;18.50;61.90;;;;;;4973554;28;20049;-76
2022/05/27 05:43:55;;;;;;;1.33;1.15;;;18.50;62.00;;;;;;4958378;28;20110;-76
2022/05/27 05:46:22;;;;;;;2.33;1.48;;;18.50;61.90;;;;;;4956967;28;20011;-76
2022/05/27 05:48:47;;;;;;;1.52;1.30;;;18.50;62.00;;;;;;4973540;28;20038;-77
2022/05/27 05:51:13;;;;;;;2.25;1.38;;;18.50;62.00;;;;;;4975272;28;20039;-76
2022/05/27 05:53:39;;;;;;;2.95;1.48;;;18.50;62.10;;;;;;4971049;28;20455;-77
2022/05/27 05:56:05;;;;;;;2.20;1.30;;;18.50;62.10;;;;;;4971429;28;20788;-76
2022/05/27 05:58:31;;;;;;;2.67;1.40;;;18.50;62.10;;;;;;4956662;28;20427;-76
2022/05/27 06:00:57;;;;;;;2.28;1.50;;;18.50;62.20;;;;;;4977299;28;20109;-76
2022/05/27 06:03:22;;;;;;;1.77;1.27;;;18.50;62.20;;;;;;4965560;28;20034;-76
2022/05/27 06:05:48;;;;;;;2.83;1.60;;;18.50;62.20;;;;;;4955756;28;20543;-76
2022/05/27 06:08:18;;;;;;;3.45;1.40;;;18.50;62.20;;;;;;4956399;28;20145;-76
2022/05/27 06:10:45;;;;;;;2.97;1.30;;;18.50;62.30;;;;;;4972649;28;20027;-77
2022/05/27 06:13:12;;;;;;;2.45;1.30;;;18.50;62.30;;;;;;4954683;28;20027;-76
2022/05/27 06:15:38;;;;;;;2.08;1.30;;;18.50;62.40;;;;;;4976043;28;20030;-76
2022/05/27 06:18:05;;;;;;;2.00;1.38;;;18.50;62.40;;;;;;4971621;28;20492;-77
2022/05/27 06:20:32;;;;;;;2.50;1.20;;;18.50;62.40;;;;;;4971373;28;20065;-77
2022/05/27 06:22:58;;;;;;;2.65;1.50;;;18.50;62.40;;;;;;4957789;28;20045;-77
2022/05/27 06:25:24;;;;;;;2.30;1.30;;;18.60;62.50;;;;;;4966435;28;20452;-76
2022/05/27 06:34:23;;;;;;;2.60;1.30;;;18.50;62.40;;;;;;4960010;28;20026;-77
2022/05/27 06:36:05;;;;;;;1.63;1.27;;;18.60;62.50;;;;;;4979538;28;20038;-77
2022/05/27 06:38:31;;;;;;;2.30;1.50;;;18.60;62.50;;;;;;4958401;28;20026;-77
2022/05/27 06:40:57;;;;;;;1.80;1.27;;;18.60;62.60;;;;;;4938677;28;20038;-77
2022/05/27 06:43:22;;;;;;;3.38;1.45;;;18.60;62.60;;;;;;4972262;28;20464;-77
2022/05/27 06:45:48;;;;;;;1.75;1.25;;;18.60;62.70;;;;;;4943130;28;20027;-77
2022/05/27 06:48:14;;;;;;;2.13;1.23;;;18.60;62.70;;;;;;4957222;28;20039;-83
2022/05/27 06:50:40;;;;;;;3.35;1.50;;;18.60;62.70;;;;;;4956331;28;20050;-79
2022/05/27 06:53:05;;;;;;;2.35;1.20;;;18.70;62.70;;;;;;4953313;28;20113;-77
2022/05/27 06:55:31;;;;;;;2.17;1.23;;;18.70;62.70;;;;;;4959785;28;20069;-78
2022/05/27 06:57:57;;;;;;;2.33;1.30;;;18.70;62.80;;;;;;4978892;28;20030;-78
2022/05/27 07:00:23;;;;;;;2.78;1.10;;;18.70;62.70;;;;;;4979807;28;20034;-78
2022/05/27 07:02:49;;;;;;;4.38;1.40;;;18.70;62.70;;;;;;4943973;28;20031;-78
2022/05/27 07:05:15;;;;;;;1.83;1.10;;;18.70;62.60;;;;;;4955506;29;20151;-78
2022/05/27 07:07:40;;;;;;;2.47;1.35;;;18.70;62.60;;;;;;4971100;28;20034;-77
2022/05/27 07:10:07;;;;;;;2.03;1.25;;;18.70;62.60;;;;;;4958914;28;20030;-77
2022/05/27 07:12:33;;;;;;;2.15;1.25;;;18.70;62.60;;;;;;4951231;29;20027;-78
2022/05/27 07:14:59;;;;;;;2.33;1.23;;;18.80;62.60;;;;;;4968024;28;20023;-78
2022/05/27 07:17:24;;;;;;;3.15;1.30;;;18.80;62.60;;;;;;4958652;28;20050;-78
2022/05/27 07:19:50;;;;;;;2.72;1.33;;;18.80;62.50;;;;;;4973181;28;20415;-78
2022/05/27 07:22:16;;;;;;;2.00;1.27;;;18.80;62.50;;;;;;4959657;28;20495;-78
2022/05/27 07:24:42;;;;;;;2.67;1.20;;;18.80;63.10;;;;;;4982417;28;20011;-80
2022/05/27 07:27:08;;;;;;;3.53;1.30;;;18.80;62.40;;;;;;4990477;28;20031;-76
2022/05/27 07:29:34;;;;;;;2.53;1.23;;;18.90;62.30;;;;;;4954004;28;20027;-77
2022/05/27 07:32:00;;;;;;;1.65;1.10;;;18.90;62.20;;;;;;4975139;28;20535;-76
2022/05/27 07:34:26;;;;;;;1.60;1.08;;;18.90;62.00;;;;;;4973165;28;20069;-78
2022/05/27 07:36:53;;;;;;;2.22;1.20;;;18.90;61.90;;;;;;4959516;28;20038;-76
2022/05/27 07:39:18;;;;;;;2.30;1.27;;;18.90;61.70;;;;;;4959965;28;20043;-75
2022/05/27 07:41:44;;;;;;;3.03;1.45;;;19.00;61.80;;;;;;4958743;28;20034;-76
2022/05/27 07:44:10;;;;;;;2.65;1.40;;;19.00;61.60;;;;;;4974553;28;20042;-76
2022/05/27 07:46:37;;;;;;;2.67;1.20;;;19.00;61.50;;;;;;4975270;28;20501;-76
2022/05/27 07:49:04;;;;;;;2.80;1.00;;;19.00;61.40;;;;;;4974434;28;20086;-76
2022/05/27 07:51:31;;;;;;;1.40;1.25;;;19.10;61.50;;;;;;4975353;28;20077;-76
2022/05/27 07:53:56;;;;;;;1.60;1.10;;;19.10;61.30;;;;;;4989352;28;20007;-77
2022/05/27 07:56:22;;;;;;;2.50;1.27;;;19.10;61.20;;;;;;4994254;28;20057;-77
2022/05/27 07:58:48;;;;;;;2.75;1.40;;;19.20;61.20;;;;;;4978117;28;20290;-77
2022/05/27 08:01:14;;;;;;;2.30;1.17;;;19.20;61.10;;;;;;4972563;28;20089;-79
2022/05/27 08:03:41;;;;;;;3.03;1.30;;;19.20;60.90;;;;;;4972703;28;20078;-75
2022/05/27 08:06:07;;;;;;;3.08;1.38;;;19.30;60.90;;;;;;4974278;28;20578;-75
2022/05/27 08:08:33;;;;;;;2.80;1.50;;;19.30;60.80;;;;;;4955208;28;20039;-76
2022/05/27 08:10:59;;;;;;;3.40;1.40;;;19.30;60.70;;;;;;4957977;28;20031;-76
2022/05/27 08:13:26;;;;;;;1.40;1.10;;;19.40;60.70;;;;;;4957176;28;20033;-77
2022/05/27 08:15:53;;;;;;;1.85;1.30;;;19.40;60.60;;;;;;4973073;28;20031;-78
2022/05/27 08:18:20;;;;;;;3.30;1.27;;;19.40;60.50;;;;;;4973622;28;20043;-77
2022/05/27 08:20:46;;;;;;;3.83;1.60;;;19.50;60.40;;;;;;4974759;28;20034;-77
2022/05/27 08:23:12;;;;;;;2.33;1.17;;;19.50;60.30;;;;;;4973934;28;20628;-77
2022/05/27 08:25:38;;;;;;;2.85;1.35;;;19.60;60.30;;;;;;4966005;28;20102;-78
2022/05/27 08:28:05;;;;;;;2.20;1.17;;;19.60;60.20;;;;;;4949464;28;20160;-76
2022/05/27 08:30:34;;;;;;;2.97;1.30;;;19.70;60.20;;;;;;4957677;28;20041;-77
2022/05/27 08:33:00;;;;;;;2.45;1.20;;;19.70;60.10;;;;;;4954699;29;20027;-77
2022/05/27 08:38:18;;;;;;;2.60;1.30;;;19.80;60.00;;;;;;4986724;28;20031;-78
2022/05/27 08:40:49;;;;;;;2.30;1.10;;;19.80;59.90;;;;;;4964464;28;20049;-77
2022/05/27 08:43:15;;;;;;;3.13;1.42;;;19.90;60.00;;;;;;4976355;28;20050;-76
2022/05/27 08:46:06;;;;;;;2.72;1.23;;;20.00;59.90;;;;;;4973390;28;20050;-77
2022/05/27 08:48:38;;;;;;;1.55;1.20;;;20.00;59.90;;;;;;4966556;28;20066;-77
2022/05/27 08:51:18;;;;;;;2.45;1.42;;;20.10;59.70;;;;;;4974231;28;20051;-78
2022/05/27 08:53:53;;;;;;;1.40;1.15;;;20.10;59.70;;;;;;4972813;28;20082;-79
2022/05/27 08:59:27;;;;;;;2.35;1.20;;;20.20;59.50;;;;;;4972111;28;20064;-79
2022/05/27 09:02:20;;;;;;;1.88;1.13;;;20.30;59.40;;;;;;4976963;28;20464;-76
2022/05/27 09:05:16;;;;;;;3.03;1.50;;;20.30;59.30;;;;;;4971725;28;20031;-79
2022/05/27 09:07:58;;;;;;;2.47;1.40;;;20.40;59.30;;;;;;4971111;28;20109;-83
2022/05/27 09:10:45;;;;;;;2.33;1.40;;;20.50;59.30;;;;;;4953232;29;20038;-76
2022/05/27 09:13:17;;;;;;;2.53;1.27;;;20.50;59.10;;;;;;4978919;28;20117;-76
2022/05/27 09:15:56;;;;;;;2.05;1.20;;;20.60;59.00;;;;;;4976419;28;20494;-76
2022/05/27 09:18:31;;;;;;;2.28;1.27;;;20.60;59.00;;;;;;4972268;28;20058;-77
2022/05/27 09:20:57;;;;;;;;;;;20.60;58.90;;;;;;4974393;28;20031;-76
2022/05/27 09:24:00;;;;;;;2.53;1.15;;;20.70;58.80;;;;;;4974650;28;20219;-77
2022/05/27 09:26:34;;;;;;;2.45;1.40;;;20.80;58.80;;;;;;4956503;28;20446;-77
2022/05/27 09:29:10;;;;;;;2.35;1.15;;;20.80;58.70;;;;;;4974033;28;20090;-77
2022/05/27 09:31:47;;;;;;;1.65;1.10;;;20.90;58.70;;;;;;4966103;28;20026;-78
2022/05/27 09:34:14;;;;;;;3.17;1.30;;;20.90;58.60;;;;;;4953151;28;20035;-77
2022/05/27 09:36:47;;;;;;;3.42;1.30;;;21.00;58.50;;;;;;4972840;28;20031;-78
2022/05/27 09:39:15;;;;;;;2.45;1.27;;;21.00;58.50;;;;;;4950826;28;20042;-77
2022/05/27 09:42:07;;;;;;;3.38;1.25;;;21.10;58.40;;;;;;4976073;28;20105;-78
2022/05/27 09:44:48;;;;;;;2.83;1.20;;;21.20;58.40;;;;;;4960624;28;20023;-82
2022/05/27 09:47:16;;;;;;;2.58;1.30;;;21.20;58.20;;;;;;4958272;28;20107;-79
2022/05/27 09:49:49;;;;;;;2.47;1.25;;;21.30;58.00;;;;;;4955432;28;20031;-77
2022/05/27 09:52:14;;;;;;;2.45;1.20;;;21.40;58.00;;;;;;4973411;28;20027;-78
2022/05/27 09:54:48;;;;;;;2.70;1.30;;;21.40;57.80;;;;;;4975068;28;20034;-78
2022/05/27 09:57:16;;;;;;;2.30;1.30;;;21.50;57.70;;;;;;4986907;28;20027;-79
2022/05/27 09:59:53;;;;;;;1.80;1.17;;;21.50;57.60;;;;;;4971733;28;20019;-79
2022/05/27 10:02:30;;;;;;;0.95;0.90;;;21.60;57.60;;;;;;4965278;28;20149;-78
2022/05/27 10:05:22;;;;;;;1.73;1.30;;;21.70;57.40;;;;;;4973213;28;20057;-78
2022/05/27 10:07:53;;;;;;;2.50;1.45;;;21.70;57.40;;;;;;4971425;28;20502;-78
2022/05/27 10:10:28;;;;;;;3.35;1.17;;;21.80;57.20;;;;;;4965163;28;20022;-78
2022/05/27 10:12:56;;;;;;;3.00;1.40;;;21.90;57.10;;;;;;4951919;29;20038;-78
2022/05/27 10:15:35;;;;;;;3.03;1.33;;;22.00;57.10;;;;;;4952254;28;20359;-78
2022/05/27 10:18:24;;;;;;;1.35;1.00;;;22.00;57.10;;;;;;4962244;28;20128;-78
2022/05/27 10:21:00;;;;;;;2.50;1.45;;;22.10;56.90;;;;;;4965964;28;20121;-79
2022/05/27 10:23:36;;;;;;;2.30;1.10;;;22.20;56.70;;;;;;4962874;28;20089;-78
2022/05/27 10:26:26;;;;;;;3.10;1.25;;;22.20;56.60;;;;;;4971387;28;20039;-78
2022/05/27 10:29:13;;;;;;;3.15;1.48;;;22.30;56.50;;;;;;4965282;28;20463;-78
2022/05/27 10:31:50;;;;;;;2.35;1.33;;;22.30;56.30;;;;;;4987372;28;20486;-79
2022/05/27 10:34:40;;;;;;;2.65;1.30;;;22.40;56.20;;;;;;4970818;28;20498;-78
2022/05/27 10:37:06;;;;;;;2.55;1.27;;;22.40;56.10;;;;;;4968652;28;20035;-78
2022/05/27 10:40:24;;;;;;;2.30;1.25;;;22.50;56.00;;;;;;4973433;28;20029;-77
2022/05/27 10:42:53;;;;;;;3.45;1.20;;;22.50;56.00;;;;;;4949447;28;20046;-78
2022/05/27 10:45:40;;;;;;;2.10;1.15;;;22.60;55.70;;;;;;4971438;28;20443;-78
2022/05/27 10:48:11;;;;;;;2.30;1.20;;;22.60;55.70;;;;;;4968132;28;20034;-77
2022/05/27 10:50:40;;;;;;;3.78;1.70;;;22.60;55.50;;;;;;4971800;28;20042;-77
2022/05/27 10:53:25;;;;;;;2.13;1.10;;;22.70;55.40;;;;;;4970284;28;20022;-77
2022/05/27 10:56:01;;;;;;;;;;;22.70;55.30;;;;;;4970141;28;20018;-77
2022/05/27 11:04:13;;;;;;;2.75;1.30;;;22.90;55.00;;;;;;4968682;28;20482;-78
2022/05/27 11:07:14;;;;;;;2.65;1.30;;;22.90;55.00;;;;;;4970586;28;20030;-79
2022/05/27 11:10:11;;;;;;;2.47;1.23;;;22.90;55.00;;;;;;4964011;28;20529;-78
2022/05/27 11:16:09;;;;;;;2.10;1.35;;;23.00;54.80;;;;;;4962773;28;20043;-78
2022/05/27 11:19:10;;;;;;;1.67;0.98;;;23.00;54.90;;;;;;4919064;29;20353;-79
2022/05/27 11:21:53;;;;;;;2.15;1.23;;;23.10;54.80;;;;;;4919447;29;20455;-79
2022/05/27 11:24:34;;;;;;;2.63;1.38;;;23.10;54.90;;;;;;4967913;28;20034;-78
2022/05/27 11:27:25;;;;;;;2.50;1.45;;;23.10;54.90;;;;;;4973790;28;20090;-79
2022/05/27 11:30:21;;;;;;;3.88;1.20;;;23.10;54.90;;;;;;4968749;28;20122;-79
2022/05/27 11:32:56;;;;;;;2.08;1.10;;;23.10;54.90;;;;;;4966713;28;20078;-78
2022/05/27 11:35:21;;;;;;;;;;;23.10;54.80;;;;;;4978418;28;20033;-78
2022/05/27 11:38:06;;;;;;;1.88;1.17;;;23.10;54.90;;;;;;4974342;28;19940;-78
2022/05/27 11:40:54;;;;;;;2.67;1.10;;;23.20;54.90;;;;;;4972479;28;20031;-79
2022/05/27 11:44:03;;;;;;;3.10;1.42;;;23.10;55.00;;;;;;4974079;28;20463;-79
2022/05/27 11:46:50;;;;;;;3.40;1.10;;;23.20;55.10;;;;;;4914521;29;20036;-78
2022/05/27 11:49:40;;;;;;;3.08;1.38;;;23.20;55.10;;;;;;4966245;28;20050;-78
2022/05/27 11:52:09;;;;;;;3.72;1.30;;;23.10;55.10;;;;;;4968656;28;20042;-78
2022/05/27 11:54:53;;;;;;;2.75;1.25;;;23.20;55.10;;;;;;4974568;28;20364;-77
2022/05/27 11:57:57;;;;;;;2.92;1.48;;;23.10;55.00;;;;;;4974823;28;20034;-78
2022/05/27 12:00:27;;;;;;;2.75;1.17;;;23.20;55.10;;;;;;4948925;28;20028;-80
2022/05/27 12:03:04;;;;;;;2.72;1.20;;;23.20;54.90;;;;;;4929897;29;20027;-78
2022/05/27 12:05:41;;;;;;;3.00;1.35;;;23.10;54.90;;;;;;4949912;28;20026;-78
2022/05/27 12:08:33;;;;;;;2.55;1.20;;;23.20;55.00;;;;;;4973919;28;20130;-78
2022/05/27 12:11:11;;;;;;;2.22;1.15;;;23.20;55.00;;;;;;4972132;28;20042;-79
2022/05/27 12:13:44;;;;;;;3.25;1.33;;;23.20;55.00;;;;;;4971175;28;20085;-79
2022/05/27 12:16:13;;;;;;;2.55;1.30;;;23.20;55.00;;;;;;4953959;28;20439;-78
2022/05/27 12:18:42;;;;;;;4.65;1.38;;;23.20;54.90;;;;;;4968364;28;20078;-79
2022/05/27 12:21:12;;;;;;;2.78;1.25;;;23.20;54.90;;;;;;4965508;28;20406;-80
2022/05/27 12:23:44;;;;;;;2.90;1.20;;;23.20;54.90;;;;;;4971419;28;20033;-78
2022/05/27 12:26:10;;;;;;;2.55;1.20;;;23.20;54.80;;;;;;4970882;28;20031;-77
2022/05/27 12:28:41;;;;;;;3.70;1.77;;;23.20;54.80;;;;;;4973705;28;20372;-78
2022/05/27 12:31:09;;;;;;;2.28;1.33;;;23.20;54.80;;;;;;4999532;28;20034;-78
2022/05/27 12:33:37;;;;;;;2.83;1.42;;;23.20;54.70;;;;;;4972315;28;20023;-78
2022/05/27 12:36:11;;;;;;;2.05;1.10;;;23.20;54.70;;;;;;4952806;29;20523;-78
2022/05/27 12:38:44;;;;;;;2.65;1.20;;;23.20;54.70;;;;;;4963536;28;20451;-78
2022/05/27 12:41:15;;;;;;;4.97;1.45;;;23.20;54.70;;;;;;4973329;28;20026;-78
2022/05/27 12:43:58;;;;;;;4.10;1.55;;;23.20;54.70;;;;;;4972977;28;20033;-78
2022/05/27 12:46:32;;;;;;;3.22;1.35;;;23.20;54.70;;;;;;4969199;28;20030;-78
2022/05/27 12:49:33;;;;;;;2.45;1.10;;;23.20;54.60;;;;;;4963134;28;20043;-79
2022/05/27 12:52:00;;;;;;;4.75;1.63;;;23.20;54.70;;;;;;4933120;29;20032;-78
2022/05/27 12:54:48;;;;;;;2.60;1.35;;;23.20;54.50;;;;;;4960343;28;20054;-78
2022/05/27 13:03:30;;;;;;;2.63;1.13;;;23.20;54.50;;;;;;4970129;28;20753;-80
2022/05/27 13:06:11;;;;;;;4.07;1.30;;;23.10;54.40;;;;;;4951318;28;20379;-78
2022/05/27 13:08:50;;;;;;;4.40;1.60;;;23.20;54.50;;;;;;4972449;28;20062;-79
2022/05/27 13:11:37;;;;;;;1.92;1.10;;;23.20;54.50;;;;;;4970460;28;20073;-79
2022/05/27 13:14:03;;;;;;;3.65;1.27;;;23.10;54.50;;;;;;4966034;28;20411;-79
2022/05/27 13:16:45;;;;;;;3.33;1.20;;;23.20;54.40;;;;;;4975777;28;20085;-80
2022/05/27 13:19:36;;;;;;;2.53;1.25;;;23.20;54.20;;;;;;4946664;28;20051;-80
2022/05/27 13:22:09;;;;;;;2.58;1.35;;;23.10;54.10;;;;;;4971740;28;20459;-78
2022/05/27 13:24:38;;;;;;;3.05;1.50;;;23.20;54.10;;;;;;4955890;28;20022;-78
2022/05/27 13:27:31;;;;;;;2.60;1.20;;;23.20;54.00;;;;;;4972402;28;20027;-78
2022/05/27 13:30:08;;;;;;;3.47;1.33;;;23.20;54.10;;;;;;4966495;28;20316;-78
2022/05/27 13:33:08;;;;;;;4.05;1.42;;;23.20;54.00;;;;;;4972928;28;20062;-79
2022/05/27 13:35:43;;;;;;;2.50;1.10;;;23.20;54.00;;;;;;4971746;28;20056;-78
2022/05/27 13:38:13;;;;;;;2.08;1.30;;;23.10;53.80;;;;;;4972172;28;20092;-79
2022/05/27 13:40:40;;;;;;;2.83;1.23;;;23.20;53.80;;;;;;4979083;28;20427;-79
2022/05/27 13:43:19;;;;;;;2.90;1.40;;;23.20;53.80;;;;;;4971419;28;20076;-79
2022/05/27 13:45:55;;;;;;;4.00;1.38;;;23.20;53.40;;;;;;4972125;28;20030;-79
2022/05/27 13:48:45;;;;;;;6.13;1.35;;;23.20;53.30;;;;;;4972156;28;20026;-79
2022/05/27 13:51:14;;;;;;;1.30;0.93;;;23.20;53.30;;;;;;4981755;28;20034;-78